»·PEaware :: N766SB KSNA-KSAS

N766SB :: KSNA-KSAS

FLIGHT INFORMATION

Flight Status: Arrived
Operator: Privately registered:
United States
More flights under this callsign
Pilot: Charles S. (11412)
Aircraft: CIRRUS VISIONJET
(SF50)
More flights by this aircraft type
Origin: KSNA John Wayne-Orange Co
United States
Destination: KSAS Salton Sea
United States
More flights between these airports :: More routes between these airports
Route: +SLI V64 TRM
File this flight plan on PilotEdge
Remarks:
Altitude:
(Current/Filed)
13,000ft
Speed:
(Current/Filed)
115kts
Departed: 06-Jan-18 11:31 AM
Arrived: 06-Jan-18 12:00 PM
Distance/Time
Traveled:
99nm/0:29
Distance/Time
To Go:
Arrived

Flight Plot

Page will automatically refresh every two minutes.

Flight plan parsing failed; only flown route is shown


Map Options




Map Legend


Flown Route
Filed Route
Departure Airport
Arrival Airport
Navaid (VOR, NDB)
Fix

Horizontal Profiles

Position Reports

Time Latitude Longitude Heading Altitude Ground
Speed
06-Jan-18 11:24 33.666584 -117.872622 240 60ft 0kts
06-Jan-18 11:25 33.666584 -117.872622 240 60ft 0kts
06-Jan-18 11:26 33.666584 -117.872622 240 60ft 0kts
06-Jan-18 11:27 33.666584 -117.872622 240 60ft 0kts
06-Jan-18 11:28 33.666584 -117.872622 240 60ft 0kts
06-Jan-18 11:29 33.666584 -117.872622 240 60ft 0kts
06-Jan-18 11:30 33.666584 -117.872622 240 60ft 0kts
06-Jan-18 11:31 33.666584 -117.872622 240 60ft 0kts
06-Jan-18 11:32 33.666584 -117.872622 240 60ft 0kts
06-Jan-18 11:33 33.667371 -117.872415 347 60ft 15kts
06-Jan-18 11:34 33.671258 -117.868745 40 60ft 15kts
06-Jan-18 11:35 33.675443 -117.866218 28 60ft 20kts
06-Jan-18 11:36 33.680203 -117.863210 26 60ft 13kts
06-Jan-18 11:37 33.678518 -117.867028 207 60ft 83kts
06-Jan-18 11:38 33.639765 -117.879120 186 1648ft 207kts
06-Jan-18 11:39 33.583229 -117.888419 186 3364ft 208kts
06-Jan-18 11:40 33.523969 -117.898727 186 4951ft 228kts
06-Jan-18 11:41 33.481098 -117.859621 75 5867ft 254kts
06-Jan-18 11:42 33.515583 -117.789177 61 7629ft 228kts
06-Jan-18 11:43 33.541081 -117.727024 89 9350ft 193kts
06-Jan-18 11:44 33.545066 -117.663163 88 10940ft 222kts
06-Jan-18 11:45 33.548828 -117.601538 86 11942ft 275kts
06-Jan-18 11:46 33.555875 -117.486145 86 13017ft 319kts
06-Jan-18 11:47 33.561051 -117.399193 86 13007ft 310kts
06-Jan-18 11:48 33.568031 -117.280165 86 13007ft 306kts
06-Jan-18 11:49 33.573872 -117.178992 86 13034ft 304kts
06-Jan-18 11:50 33.578688 -117.094321 86 13033ft 304kts
06-Jan-18 11:51 33.584344 -116.993541 86 13018ft 303kts
06-Jan-18 11:52 33.589883 -116.893666 85 13007ft 300kts
06-Jan-18 11:53 33.596220 -116.777783 85 12996ft 298kts
06-Jan-18 11:54 33.600635 -116.695550 85 13007ft 297kts
06-Jan-18 11:55 33.578303 -116.605558 124 13021ft 293kts
06-Jan-18 11:56 33.535469 -116.523240 122 13002ft 294kts
06-Jan-18 11:57 33.492562 -116.440076 124 12997ft 293kts
06-Jan-18 11:58 33.449537 -116.357175 123 12998ft 294kts
06-Jan-18 11:59 33.408420 -116.274349 118 11442ft 289kts
06-Jan-18 12:00 33.370451 -116.185862 114 8294ft 282kts
06-Jan-18 12:01 33.332855 -116.113228 126 5766ft 249kts
06-Jan-18 12:02 33.289828 -116.052186 128 2863ft 230kts
06-Jan-18 12:03 33.251897 -116.009152 133 915ft 119kts
06-Jan-18 12:04 33.239150 -115.983446 90 398ft 94kts
06-Jan-18 12:05 33.240804 -115.957573 82 -72ft 68kts
06-Jan-18 12:06 33.241199 -115.951916 80 -79ft 0kts
06-Jan-18 12:07 33.241199 -115.951916 80 -79ft 0kts
06-Jan-18 12:08 33.241199 -115.951916 80 -79ft 0kts
06-Jan-18 12:09 33.241199 -115.951916 80 -79ft 0kts
06-Jan-18 12:10 33.241199 -115.951916 80 -79ft 0kts
06-Jan-18 12:11 33.241199 -115.951916 80 -79ft 0kts
06-Jan-18 12:12 33.241199 -115.951916 80 -79ft 0kts
06-Jan-18 12:13 33.241199 -115.951916 80 -79ft 0kts
06-Jan-18 12:14 33.241199 -115.951916 80 -79ft 0kts

Navigation Log

Ident Type
Flight plan parsing failed, navigation log unavailable